createdAt,value
2022-10-31T00:00:04.303Z,1005.2
2022-10-31T00:01:05.801Z,1005.2
2022-10-31T00:02:07.104Z,1005.1
2022-10-31T00:03:08.817Z,1005.1
2022-10-31T00:04:09.998Z,1005.2
2022-10-31T00:05:12.804Z,1005.2
2022-10-31T00:06:13.875Z,1005.2
2022-10-31T00:07:15.815Z,1005.2
2022-10-31T00:08:16.796Z,1005.2
2022-10-31T00:09:18.395Z,1005.2
2022-10-31T00:10:19.821Z,1005.2
2022-10-31T00:11:21.831Z,1005.2
2022-10-31T00:12:23.914Z,1005.2
2022-10-31T00:13:25.851Z,1005.2
2022-10-31T00:14:28.616Z,1005.2
2022-10-31T00:15:29.868Z,1005.2
2022-10-31T00:16:31.768Z,1005.2
2022-10-31T00:17:32.863Z,1005.2
2022-10-31T00:18:34.955Z,1005.2
2022-10-31T00:19:36.836Z,1005.2
2022-10-31T00:20:38.960Z,1005.2
2022-10-31T00:21:40.795Z,1005.2
2022-10-31T00:22:42.114Z,1005.2
2022-10-31T00:23:44.172Z,1005.2
2022-10-31T00:24:45.725Z,1005.2
2022-10-31T00:25:46.804Z,1005.2
2022-10-31T00:26:47.822Z,1005.3
2022-10-31T00:27:49.444Z,1005.3
2022-10-31T00:28:51.336Z,1005.3
2022-10-31T00:29:52.815Z,1005.2
2022-10-31T00:30:53.799Z,1005.2
2022-10-31T00:31:54.814Z,1005.3
2022-10-31T00:32:57.701Z,1005.3
2022-10-31T00:33:58.803Z,1005.3
2022-10-31T00:34:59.795Z,1005.3
2022-10-31T00:36:00.835Z,1005.3
2022-10-31T00:37:01.799Z,1005.3
2022-10-31T00:38:04.055Z,1005.3
2022-10-31T00:39:05.841Z,1005.3
2022-10-31T00:40:06.815Z,1005.2
2022-10-31T00:41:07.815Z,1005.3
2022-10-31T00:42:09.215Z,1005.2
2022-10-31T00:44:12.846Z,1005.3
2022-10-31T00:45:13.728Z,1005.2
2022-10-31T00:46:14.869Z,1005.2
2022-10-31T00:47:15.854Z,1005.2
2022-10-31T00:48:17.841Z,1005.3
2022-10-31T00:49:18.838Z,1005.3
2022-10-31T00:50:20.814Z,1005.3
2022-10-31T00:51:22.842Z,1005.2
2022-10-31T00:52:25.214Z,1005.2
2022-10-31T00:53:27.116Z,1005.3
2022-10-31T00:54:28.824Z,1005.3
2022-10-31T00:55:30.195Z,1005.3
2022-10-31T00:56:32.375Z,1005.3
2022-10-31T00:57:33.836Z,1005.3
2022-10-31T00:58:35.474Z,1005.4
2022-10-31T00:59:36.894Z,1005.3
2022-10-31T01:00:39.914Z,1004.8
2022-10-31T01:01:41.986Z,1005.1
2022-10-31T01:02:42.990Z,1005.2
2022-10-31T01:03:44.003Z,1005.3
2022-10-31T01:04:45.914Z,1005.3
2022-10-31T01:05:47.835Z,1005.2
2022-10-31T01:06:49.862Z,1005.3
2022-10-31T01:07:51.334Z,1005.3
2022-10-31T01:08:52.875Z,1005.3
2022-10-31T01:09:55.295Z,1005.4
2022-10-31T01:10:56.803Z,1005.4
2022-10-31T01:11:57.895Z,1005.3
2022-10-31T01:13:00.354Z,1005.3
2022-10-31T01:14:01.976Z,1005.4
2022-10-31T01:15:04.244Z,1005.3
2022-10-31T01:16:05.837Z,1005.3
2022-10-31T01:17:07.939Z,1005.4
2022-10-31T01:18:10.239Z,1005.4
2022-10-31T01:19:11.815Z,1005.3
2022-10-31T01:20:12.834Z,1005.4
2022-10-31T01:21:14.296Z,1005.3
2022-10-31T01:22:16.200Z,1005.4
2022-10-31T01:23:17.875Z,1005.4
2022-10-31T01:24:19.814Z,1004.7
2022-10-31T01:25:21.882Z,1005.2
2022-10-31T01:26:24.263Z,1005.3
2022-10-31T01:27:25.821Z,1005.3
2022-10-31T01:28:27.911Z,1005.3
2022-10-31T01:29:29.842Z,1005.3
2022-10-31T01:30:30.807Z,1005.3
2022-10-31T01:31:31.884Z,1005.3
2022-10-31T01:32:32.807Z,1005.3
2022-10-31T01:33:33.864Z,1005.3
2022-10-31T01:34:35.124Z,1005.3
2022-10-31T01:35:36.894Z,1005.3
2022-10-31T01:36:39.253Z,1005.2
2022-10-31T01:37:41.215Z,1005.2
2022-10-31T01:38:43.738Z,1005.2
2022-10-31T01:39:45.822Z,1005.3
2022-10-31T01:40:46.864Z,1005.3
2022-10-31T01:41:47.863Z,1005.3
2022-10-31T01:42:48.923Z,1005.3
2022-10-31T01:43:50.904Z,1005.3
2022-10-31T01:44:52.875Z,1005.3
2022-10-31T01:45:55.214Z,1005.3
2022-10-31T01:46:57.114Z,1005.3
2022-10-31T01:47:59.164Z,1005.3
2022-10-31T01:48:59.883Z,1005.3
2022-10-31T01:50:02.359Z,1005.3
2022-10-31T01:51:04.014Z,1005.3
2022-10-31T01:52:10.839Z,1005.4
2022-10-31T01:53:12.474Z,1005.4
2022-10-31T01:54:13.854Z,1005.3
2022-10-31T01:55:15.342Z,1005.4
2022-10-31T01:56:16.851Z,1005.3
2022-10-31T01:57:17.862Z,1005.3
2022-10-31T01:59:20.514Z,1005.3
2022-10-31T02:00:21.884Z,1005.4
2022-10-31T02:04:20.878Z,1005.4
2022-10-31T02:05:22.859Z,1005.4
2022-10-31T02:06:23.878Z,1005.4
2022-10-31T02:07:24.820Z,1005.4
2022-10-31T02:08:26.458Z,1005.4
2022-10-31T02:09:27.919Z,1005.4
2022-10-31T02:10:28.798Z,1005.4
2022-10-31T02:11:29.840Z,1005.4
2022-10-31T02:12:31.163Z,1005.4
2022-10-31T02:13:32.867Z,1005.4
2022-10-31T02:14:33.858Z,1005.4
2022-10-31T02:15:34.946Z,1005.5
2022-10-31T02:16:36.839Z,1005.4
2022-10-31T02:17:37.859Z,1005.4
2022-10-31T02:18:38.879Z,1005.4
2022-10-31T02:19:39.845Z,1005.4
2022-10-31T02:20:40.843Z,1005.4
2022-10-31T02:21:41.818Z,1005.4
2022-10-31T02:22:43.062Z,1005.4
2022-10-31T02:23:46.513Z,1005.4
2022-10-31T02:24:46.846Z,1005.4
2022-10-31T02:25:47.940Z,1005.4
2022-10-31T02:26:49.881Z,1005.5
2022-10-31T02:27:52.261Z,1005.4
2022-10-31T02:28:53.901Z,1005.4
2022-10-31T02:29:54.819Z,1005.4
2022-10-31T02:30:55.858Z,1005.4
2022-10-31T02:31:56.839Z,1005.4
2022-10-31T02:32:58.167Z,1005.4
2022-10-31T02:33:58.946Z,1005.4
2022-10-31T02:35:01.142Z,1005.4
2022-10-31T02:36:02.900Z,1005.3
2022-10-31T02:37:04.287Z,1005.3
2022-10-31T02:38:06.160Z,1005.4
2022-10-31T02:39:07.840Z,1005.4
2022-10-31T02:40:09.959Z,1005.4
2022-10-31T02:41:11.878Z,1005.4
2022-10-31T02:42:13.120Z,1005.4
2022-10-31T02:44:16.905Z,1005.5
2022-10-31T02:45:17.879Z,1005.4
2022-10-31T02:46:18.839Z,1005.5
2022-10-31T02:47:20.167Z,1005.5
2022-10-31T02:48:22.109Z,1005.4
2022-10-31T02:49:23.859Z,1005.4
2022-10-31T02:50:25.084Z,1005.4
2022-10-31T02:51:27.119Z,1005.4
2022-10-31T02:52:28.859Z,1005.5
2022-10-31T02:53:29.861Z,1005.5
2022-10-31T02:54:30.841Z,1005.5
2022-10-31T02:55:32.022Z,1005.5
2022-10-31T02:56:33.922Z,1005.4
2022-10-31T02:57:34.880Z,1005.5
2022-10-31T02:58:36.947Z,1005.5
2022-10-31T02:59:38.901Z,1005.4
2022-10-31T03:00:40.920Z,1005.5
2022-10-31T03:01:43.516Z,1005.5
2022-10-31T03:02:45.037Z,1005.5
2022-10-31T03:03:46.987Z,1005.5
2022-10-31T03:04:48.819Z,1005.5
2022-10-31T03:05:49.863Z,1005.5
2022-10-31T03:06:51.222Z,1005.5
2022-10-31T03:07:52.999Z,1005.6
2022-10-31T03:08:55.138Z,1004.9
2022-10-31T03:09:56.900Z,1005.4
2022-10-31T03:10:58.882Z,1005.5
2022-10-31T03:12:01.203Z,1005.6
2022-10-31T03:13:03.148Z,1005.6
2022-10-31T03:14:03.879Z,1005.6
2022-10-31T03:15:04.887Z,1005.6
2022-10-31T03:16:05.882Z,1005.6
2022-10-31T03:17:06.920Z,1005.6
2022-10-31T03:18:08.938Z,1005.6
2022-10-31T03:19:10.878Z,1005.7
2022-10-31T03:20:12.258Z,1005.7
2022-10-31T03:21:14.282Z,1005.7
2022-10-31T03:22:15.901Z,1005.6
2022-10-31T03:23:16.915Z,1005.6
2022-10-31T03:24:17.881Z,1005.7
2022-10-31T03:25:18.898Z,1005.6
2022-10-31T03:26:19.900Z,1005.6
2022-10-31T03:27:21.464Z,1005.7
2022-10-31T03:28:23.109Z,1005.7
2022-10-31T03:29:24.881Z,1005.7
2022-10-31T03:30:25.920Z,1005.8
2022-10-31T03:31:26.879Z,1005.7
2022-10-31T03:32:27.939Z,1005.7
2022-10-31T03:33:28.919Z,1005.8
2022-10-31T03:34:29.907Z,1005.8
2022-10-31T03:35:32.274Z,1005.8
2022-10-31T03:36:34.242Z,1005.8
2022-10-31T03:37:35.939Z,1005.8
2022-10-31T03:38:37.340Z,1005.9
2022-10-31T03:39:39.338Z,1005.8
2022-10-31T03:40:40.958Z,1005.8
2022-10-31T03:41:42.878Z,1005.8
2022-10-31T03:42:45.179Z,1005.8
2022-10-31T03:43:46.882Z,1005.2
2022-10-31T03:44:48.659Z,1005.7
2022-10-31T03:45:50.419Z,1005.8
2022-10-31T03:46:51.879Z,1005.8
2022-10-31T03:47:54.003Z,1005.8
2022-10-31T03:48:55.951Z,1005.8
2022-10-31T03:49:58.019Z,1005.8
2022-10-31T03:50:59.939Z,1005.8
2022-10-31T03:52:01.926Z,1005.8
2022-10-31T03:53:04.075Z,1005.8
2022-10-31T03:54:05.959Z,1005.8
2022-10-31T03:55:08.019Z,1005.8
2022-10-31T03:56:09.978Z,1005.9
2022-10-31T03:57:11.910Z,1005.8
2022-10-31T03:58:12.904Z,1005.8
2022-10-31T03:59:13.980Z,1005.5
2022-10-31T04:00:16.199Z,1005.8
2022-10-31T04:01:18.485Z,1005.8
2022-10-31T04:02:20.179Z,1005.8
2022-10-31T04:03:22.004Z,1005.8
2022-10-31T04:04:23.937Z,1005.9
2022-10-31T04:05:24.860Z,1005.9
2022-10-31T04:06:25.900Z,1005.8
2022-10-31T04:07:27.005Z,1005.8
2022-10-31T04:08:27.877Z,1005.9
2022-10-31T04:09:28.878Z,1005.8
2022-10-31T04:10:31.771Z,1005.9
2022-10-31T04:11:30.919Z,1005.8
2022-10-31T04:12:31.958Z,1005.9
2022-10-31T04:13:33.064Z,1005.9
2022-10-31T04:14:35.038Z,1005.9
2022-10-31T04:15:37.578Z,1005.9
2022-10-31T04:16:38.898Z,1005.9
2022-10-31T04:17:39.959Z,1005.9
2022-10-31T04:18:41.801Z,1005.8
2022-10-31T04:19:42.898Z,1005.9
2022-10-31T04:20:43.881Z,1005.9
2022-10-31T04:21:44.920Z,1005.9
2022-10-31T04:22:45.984Z,1005.9
2022-10-31T04:23:46.961Z,1005.9
2022-10-31T04:24:47.906Z,1005.9
2022-10-31T04:25:48.902Z,1005.9
2022-10-31T04:26:50.273Z,1006
2022-10-31T04:27:51.929Z,1005.9
2022-10-31T04:28:53.244Z,1005.9
2022-10-31T04:29:54.998Z,1005.9
2022-10-31T04:30:55.922Z,1005.9
2022-10-31T04:31:56.920Z,1005.8
2022-10-31T04:32:58.326Z,1005.9
2022-10-31T04:33:59.946Z,1005.8
2022-10-31T04:35:01.000Z,1005.9
2022-10-31T04:36:01.899Z,1005.9
2022-10-31T04:37:03.079Z,1005.9
2022-10-31T04:38:05.082Z,1005.9
2022-10-31T04:39:07.939Z,1005.9
2022-10-31T04:40:09.999Z,1005.9
2022-10-31T04:41:11.902Z,1006
2022-10-31T04:42:13.276Z,1005.9
2022-10-31T04:43:15.260Z,1005.9
2022-10-31T04:44:17.183Z,1005.9
2022-10-31T04:45:21.024Z,1005.9
2022-10-31T04:46:20.979Z,1005.8
2022-10-31T04:47:22.899Z,1005.2
2022-10-31T04:48:24.978Z,1005.7
2022-10-31T04:49:26.979Z,1005.9
2022-10-31T04:50:29.799Z,1005.9
2022-10-31T04:51:31.818Z,1005.9
2022-10-31T04:52:33.562Z,1005.9
2022-10-31T04:53:35.720Z,1006
2022-10-31T04:54:37.313Z,1005.9
2022-10-31T04:55:38.958Z,1005.9
2022-10-31T04:56:40.240Z,1005.9
2022-10-31T04:57:42.339Z,1005.9
2022-10-31T04:58:43.938Z,1005.9
2022-10-31T04:59:45.099Z,1005.9
2022-10-31T05:00:47.011Z,1005.9
2022-10-31T05:01:48.050Z,1005.9
2022-10-31T05:02:49.391Z,1005.9
2022-10-31T05:03:51.919Z,1006
2022-10-31T05:04:54.119Z,1006
2022-10-31T05:05:56.041Z,1005.9
2022-10-31T05:06:58.219Z,1005.9
2022-10-31T05:08:00.338Z,1005.9
2022-10-31T05:09:02.044Z,1005.9
2022-10-31T05:10:03.959Z,1006
2022-10-31T05:11:05.016Z,1006
2022-10-31T05:12:06.239Z,1006
2022-10-31T05:13:08.025Z,1006
2022-10-31T05:14:09.980Z,1006
2022-10-31T05:15:11.940Z,1006
2022-10-31T05:16:13.408Z,1006
2022-10-31T05:17:14.939Z,1006
2022-10-31T05:18:15.919Z,1006
2022-10-31T05:19:17.939Z,1006
2022-10-31T05:20:19.140Z,1006
2022-10-31T05:21:21.838Z,1006
2022-10-31T05:22:23.899Z,1006.1
2022-10-31T05:23:24.917Z,1006.1
2022-10-31T05:24:26.003Z,1006.1
2022-10-31T05:25:26.986Z,1006.1
2022-10-31T05:26:27.960Z,1006.1
2022-10-31T05:27:28.922Z,1006.1
2022-10-31T05:28:29.939Z,1005.8
2022-10-31T05:29:30.960Z,1006.1
2022-10-31T05:30:32.038Z,1006.1
2022-10-31T05:31:34.078Z,1006.1
2022-10-31T05:32:36.201Z,1006.1
2022-10-31T05:33:38.054Z,1006.1
2022-10-31T05:34:40.238Z,1006.1
2022-10-31T05:35:42.027Z,1006.1
2022-10-31T05:36:42.978Z,1006.1
2022-10-31T05:37:43.978Z,1006.1
2022-10-31T05:38:45.299Z,1006.1
2022-10-31T05:39:47.002Z,1006.2
2022-10-31T05:40:47.909Z,1006.2
2022-10-31T05:41:49.001Z,1006.2
2022-10-31T05:42:49.938Z,1006.2
2022-10-31T05:43:51.138Z,1006.2
2022-10-31T05:44:53.298Z,1006.2
2022-10-31T05:45:55.100Z,1006.2
2022-10-31T05:46:57.059Z,1006.2
2022-10-31T05:47:59.186Z,1006.2
2022-10-31T05:49:02.592Z,1006.1
2022-10-31T05:50:02.237Z,1006.2
2022-10-31T05:51:04.806Z,1006.2
2022-10-31T05:52:06.440Z,1006.2
2022-10-31T05:53:08.000Z,1006.2
2022-10-31T05:54:13.332Z,1006.2
2022-10-31T05:55:12.053Z,1006.2
2022-10-31T05:56:13.519Z,1006.2
2022-10-31T05:57:15.140Z,1006.2
2022-10-31T05:58:17.020Z,1006.2
2022-10-31T05:59:18.607Z,1006.2
2022-10-31T06:00:20.454Z,1006.2
2022-10-31T06:01:22.065Z,1006.2
2022-10-31T06:02:23.078Z,1006.2
2022-10-31T06:03:24.988Z,1006.3
2022-10-31T06:04:26.007Z,1006.3
2022-10-31T06:05:26.946Z,1006.2
2022-10-31T06:06:28.358Z,1006
2022-10-31T06:07:29.979Z,1006.2
2022-10-31T06:08:31.013Z,1006.3
2022-10-31T06:09:33.017Z,1006.3
2022-10-31T06:10:34.982Z,1006.3
2022-10-31T06:11:35.978Z,1006.3
2022-10-31T06:12:36.982Z,1006.3
2022-10-31T06:13:38.058Z,1006.3
2022-10-31T06:14:40.040Z,1006.3
2022-10-31T06:15:42.878Z,1006.3
2022-10-31T06:16:44.360Z,1006.3
2022-10-31T06:17:46.619Z,1006.3
2022-10-31T06:18:47.989Z,1006.3
2022-10-31T06:20:52.339Z,1006.3
2022-10-31T06:21:54.039Z,1006.3
2022-10-31T06:22:55.977Z,1006.4
2022-10-31T06:23:57.984Z,1006.4
2022-10-31T06:25:00.331Z,1006.5
2022-10-31T06:26:01.993Z,1006.4
2022-10-31T06:27:02.882Z,1006.4
2022-10-31T06:28:03.959Z,1006.5
2022-10-31T06:29:05.019Z,1006.5
2022-10-31T06:30:05.979Z,1006.5
2022-10-31T06:31:06.979Z,1006.4
2022-10-31T06:32:07.979Z,1006.4
2022-10-31T06:33:09.491Z,1006.1
2022-10-31T06:34:11.181Z,1006.4
2022-10-31T06:35:12.941Z,1006.5
2022-10-31T06:36:14.371Z,1006.2
2022-10-31T06:37:16.861Z,1006.3
2022-10-31T06:38:18.598Z,1006.3
2022-10-31T06:39:20.201Z,1006.3
2022-10-31T06:40:22.082Z,1006.5
2022-10-31T06:41:23.961Z,1006.2
2022-10-31T06:42:25.058Z,1006.5
2022-10-31T06:43:27.099Z,1006.5
2022-10-31T06:44:29.127Z,1006.5
2022-10-31T06:45:31.501Z,1006.5
2022-10-31T06:46:33.446Z,1006.5
2022-10-31T06:47:38.014Z,1006.5
2022-10-31T06:48:36.977Z,1006.5
2022-10-31T06:49:39.099Z,1006.6
2022-10-31T06:50:41.039Z,1006.2
2022-10-31T06:51:43.038Z,1006.4
2022-10-31T06:52:44.279Z,1006.3
2022-10-31T06:53:46.281Z,1006.2
2022-10-31T06:54:48.021Z,1006.5
2022-10-31T06:55:52.046Z,1006.6
2022-10-31T06:57:09.192Z,1006.6
2022-10-31T06:58:11.701Z,1006.4
2022-10-31T06:59:13.438Z,1006.6
2022-10-31T07:00:15.059Z,1006.3
2022-10-31T07:01:16.121Z,1006.6
2022-10-31T07:02:17.501Z,1006.6
2022-10-31T07:03:19.030Z,1006.6
2022-10-31T07:04:20.207Z,1006.6
2022-10-31T07:05:22.218Z,1006.6
2022-10-31T07:06:24.019Z,1006.6
2022-10-31T07:07:24.967Z,1006.6
2022-10-31T07:08:27.101Z,1006.6
2022-10-31T07:09:29.279Z,1006.5
2022-10-31T07:10:33.126Z,1006.6
2022-10-31T07:11:33.082Z,1006.6
2022-10-31T07:12:35.060Z,1006.7
2022-10-31T07:13:37.538Z,1006.7
2022-10-31T07:14:38.998Z,1006.6
2022-10-31T07:15:40.004Z,1006.6
2022-10-31T07:16:41.999Z,1006.7
2022-10-31T07:17:43.120Z,1006.7
2022-10-31T07:18:45.158Z,1006.7
2022-10-31T07:19:47.087Z,1006.8
2022-10-31T07:20:48.978Z,1006.5
2022-10-31T07:21:49.969Z,1006.7
2022-10-31T07:22:51.419Z,1006.7
2022-10-31T07:23:53.470Z,1006.7
2022-10-31T07:24:55.275Z,1006.8
2022-10-31T07:25:56.978Z,1006.5
2022-10-31T07:28:00.525Z,1006.4
2022-10-31T07:29:02.088Z,1006.7
2022-10-31T07:30:04.058Z,1006.7
2022-10-31T07:31:05.121Z,1006.5
2022-10-31T07:32:07.098Z,1006.7
2022-10-31T07:33:09.039Z,1006.4
2022-10-31T07:34:09.998Z,1006.7
2022-10-31T07:35:11.136Z,1006.7
2022-10-31T07:36:13.307Z,1006.5
2022-10-31T07:37:15.108Z,1006.7
2022-10-31T07:38:17.235Z,1006.7
2022-10-31T07:39:19.019Z,1006.7
2022-10-31T07:40:20.969Z,1006.1
2022-10-31T07:41:22.618Z,1006.5
2022-10-31T07:42:24.520Z,1006.7
2022-10-31T07:43:26.292Z,1006.7
2022-10-31T07:44:27.953Z,1006.7
2022-10-31T07:45:29.020Z,1006.4
2022-10-31T07:46:29.991Z,1006.7
2022-10-31T07:47:31.458Z,1006.7
2022-10-31T07:48:33.188Z,1006.8
2022-10-31T07:49:35.321Z,1006.8
2022-10-31T07:50:37.578Z,1006.5
2022-10-31T07:51:42.735Z,1006.8
2022-10-31T07:52:41.005Z,1006.8
2022-10-31T07:53:42.994Z,1006.8
2022-10-31T07:54:44.960Z,1006.8
2022-10-31T07:55:46.418Z,1006.8
2022-10-31T07:56:48.028Z,1006.8
2022-10-31T07:57:49.038Z,1006.8
2022-10-31T07:58:50.002Z,1006.8
2022-10-31T07:59:51.960Z,1006.1
2022-10-31T08:00:54.578Z,1006.6
2022-10-31T08:01:56.219Z,1006.8
2022-10-31T08:02:58.715Z,1006.9
2022-10-31T08:04:00.039Z,1006.8
2022-10-31T08:05:01.338Z,1006.9
2022-10-31T08:06:02.739Z,1006.8
2022-10-31T08:07:04.058Z,1006.8
2022-10-31T08:08:06.188Z,1006.9
2022-10-31T08:09:08.079Z,1006.9
2022-10-31T08:10:10.504Z,1006.9
2022-10-31T08:11:11.960Z,1006.9
2022-10-31T08:12:13.100Z,1006.9
2022-10-31T08:13:14.138Z,1006.9
2022-10-31T08:14:15.985Z,1006.8
2022-10-31T08:15:17.026Z,1006.9
2022-10-31T08:16:18.379Z,1006.8
2022-10-31T08:17:20.418Z,1006.8
2022-10-31T08:18:22.240Z,1006.8
2022-10-31T08:19:24.659Z,1006.8
2022-10-31T08:20:26.220Z,1006.8
2022-10-31T08:21:28.527Z,1006.8
2022-10-31T08:22:30.022Z,1006.8
2022-10-31T08:23:32.060Z,1006.8
2022-10-31T08:24:34.259Z,1006.8
2022-10-31T08:25:38.200Z,1006.8
2022-10-31T08:26:38.239Z,1006.9
2022-10-31T08:27:40.299Z,1006.9
2022-10-31T08:28:42.040Z,1006.9
2022-10-31T08:29:44.222Z,1006.8
2022-10-31T08:30:46.058Z,1006.8
2022-10-31T08:31:47.542Z,1006.9
2022-10-31T08:32:49.086Z,1006.9
2022-10-31T08:33:50.639Z,1006.8
2022-10-31T08:34:52.195Z,1006.8
2022-10-31T08:35:54.412Z,1006.8
2022-10-31T08:36:56.319Z,1006.8
2022-10-31T08:37:58.436Z,1006.9
2022-10-31T08:39:01.953Z,1006.8
2022-10-31T08:40:02.129Z,1006.9
2022-10-31T08:41:04.042Z,1006.9
2022-10-31T08:42:06.112Z,1006.9
2022-10-31T08:43:08.085Z,1006.9
2022-10-31T08:44:09.544Z,1006.9
2022-10-31T08:45:11.147Z,1006.9
2022-10-31T08:46:13.420Z,1006.9
2022-10-31T08:47:16.079Z,1006.9
2022-10-31T08:48:17.011Z,1006.9
2022-10-31T08:49:18.680Z,1006.9
2022-10-31T08:50:20.580Z,1006.9
2022-10-31T08:51:22.498Z,1007
2022-10-31T08:52:38.516Z,1007
2022-10-31T08:53:26.743Z,1007
2022-10-31T08:54:28.169Z,1007
2022-10-31T08:55:30.049Z,1007
2022-10-31T08:56:32.158Z,1007
2022-10-31T08:57:34.100Z,1007
2022-10-31T08:58:39.180Z,1006.9
2022-10-31T08:59:36.558Z,1006.9
2022-10-31T09:00:38.147Z,1007
2022-10-31T09:01:40.364Z,1006.9
2022-10-31T09:02:42.178Z,1006.9
2022-10-31T09:03:44.470Z,1006.9
2022-10-31T09:04:46.420Z,1006.9
2022-10-31T09:05:48.131Z,1006.9
2022-10-31T09:07:50.139Z,1006.8
2022-10-31T09:08:51.538Z,1007
2022-10-31T09:09:53.059Z,1006.9
2022-10-31T09:10:54.142Z,1007
2022-10-31T09:11:55.478Z,1007
2022-10-31T09:12:57.096Z,1006.9
2022-10-31T09:13:59.207Z,1007
2022-10-31T09:15:01.098Z,1007
2022-10-31T09:16:02.109Z,1006.9
2022-10-31T09:17:03.099Z,1006.9
2022-10-31T09:18:04.558Z,1007
2022-10-31T09:19:10.310Z,1007
2022-10-31T09:20:07.379Z,1006.9
2022-10-31T09:21:09.078Z,1006.9
2022-10-31T09:22:10.098Z,1006.9
2022-10-31T09:23:11.119Z,1006.9
2022-10-31T09:24:12.040Z,1006.9
2022-10-31T09:25:13.243Z,1007
2022-10-31T09:26:15.379Z,1007
2022-10-31T09:27:17.499Z,1006.9
2022-10-31T09:28:20.870Z,1007
2022-10-31T09:29:22.339Z,1007
2022-10-31T09:30:24.110Z,1007
2022-10-31T09:31:25.088Z,1007
2022-10-31T09:32:26.079Z,1007
2022-10-31T09:33:27.220Z,1006.8
2022-10-31T09:34:29.167Z,1007
2022-10-31T09:35:31.219Z,1007.1
2022-10-31T09:36:33.479Z,1007.1
2022-10-31T09:37:36.259Z,1007.1
2022-10-31T09:38:38.079Z,1007.1
2022-10-31T09:39:39.499Z,1007.1
2022-10-31T09:40:41.662Z,1007.1
2022-10-31T09:41:43.099Z,1007.1
2022-10-31T09:42:45.046Z,1007.1
2022-10-31T09:43:46.293Z,1007.1
2022-10-31T09:44:48.132Z,1007.1
2022-10-31T09:45:50.098Z,1007.1
2022-10-31T09:46:51.425Z,1007.1
2022-10-31T09:47:53.196Z,1007.1
2022-10-31T09:48:55.534Z,1007.1
2022-10-31T09:49:57.164Z,1007.2
2022-10-31T09:50:58.159Z,1007.2
2022-10-31T09:52:00.657Z,1007.1
2022-10-31T09:53:02.697Z,1007.2
2022-10-31T09:54:04.938Z,1007.1
2022-10-31T09:55:06.182Z,1007.1
2022-10-31T09:56:08.112Z,1007.2
2022-10-31T09:57:10.539Z,1007.2
2022-10-31T09:58:12.077Z,1007.2
2022-10-31T09:59:14.200Z,1007.2
2022-10-31T10:00:16.202Z,1007.1
2022-10-31T10:01:18.270Z,1007.2
2022-10-31T10:02:19.155Z,1007.2
2022-10-31T10:03:20.119Z,1007.1
2022-10-31T10:04:22.090Z,1007.2
2022-10-31T10:05:23.039Z,1007.2
2022-10-31T10:06:24.198Z,1007.1
2022-10-31T10:07:26.719Z,1007.1
2022-10-31T10:08:28.118Z,1007.2
2022-10-31T10:09:29.158Z,1007.2
2022-10-31T10:10:30.058Z,1007.2
2022-10-31T10:11:31.389Z,1007.2
2022-10-31T10:12:34.140Z,1007.2
2022-10-31T10:13:49.159Z,1006.7
2022-10-31T10:14:50.519Z,1006.6
2022-10-31T10:15:52.080Z,1007
2022-10-31T10:16:53.167Z,1007.1
2022-10-31T10:17:56.101Z,1007.2
2022-10-31T10:20:07.224Z,1007.1
2022-10-31T10:21:08.319Z,1007.1
2022-10-31T10:22:10.097Z,1007.1
2022-10-31T10:23:12.113Z,1007.1
2022-10-31T10:24:14.161Z,1007.1
2022-10-31T10:25:16.192Z,1007.1
2022-10-31T10:26:17.194Z,1007.1
2022-10-31T10:27:20.625Z,1007.2
2022-10-31T10:28:20.480Z,1007.1
2022-10-31T10:29:22.162Z,1007.1
2022-10-31T10:30:24.625Z,1007.1
2022-10-31T10:31:26.239Z,1007.1
2022-10-31T10:32:28.359Z,1007.1
2022-10-31T10:33:30.221Z,1006.9
2022-10-31T10:34:32.186Z,1007
2022-10-31T10:35:33.211Z,1006.8
2022-10-31T10:36:34.359Z,1006.8
2022-10-31T10:37:38.220Z,1007
2022-10-31T10:38:40.331Z,1007.1
2022-10-31T10:39:42.959Z,1007
2022-10-31T10:40:44.279Z,1007.1
2022-10-31T10:41:46.381Z,1007
2022-10-31T10:42:48.128Z,1007
2022-10-31T10:43:49.140Z,1007
2022-10-31T10:44:50.079Z,1007
2022-10-31T10:45:51.118Z,1007
2022-10-31T10:46:52.561Z,1007
2022-10-31T10:47:54.299Z,1006.8
2022-10-31T10:48:56.479Z,1006.9
2022-10-31T10:49:58.158Z,1007
2022-10-31T10:50:59.203Z,1006.8
2022-10-31T10:52:19.757Z,1006.9
2022-10-31T10:53:01.198Z,1007
2022-10-31T10:54:07.906Z,1007
2022-10-31T10:55:05.120Z,1007
2022-10-31T10:56:06.166Z,1006.9
2022-10-31T10:57:07.157Z,1006.9
2022-10-31T10:58:08.163Z,1007
2022-10-31T10:59:09.201Z,1006.9
2022-10-31T11:00:11.139Z,1006.9
2022-10-31T11:01:12.390Z,1006.9
2022-10-31T11:02:14.141Z,1006.9
2022-10-31T11:03:16.078Z,1006.9
2022-10-31T11:04:17.185Z,1006.9
2022-10-31T11:05:18.185Z,1006.8
2022-10-31T11:06:19.162Z,1006.8
2022-10-31T11:07:20.128Z,1006.9
2022-10-31T11:08:24.797Z,1006.9
2022-10-31T11:09:22.159Z,1006.8
2022-10-31T11:10:23.159Z,1006.9
2022-10-31T11:11:24.186Z,1006.8
2022-10-31T11:12:25.293Z,1006.8
2022-10-31T11:13:27.334Z,1006.7
2022-10-31T11:14:29.198Z,1006.9
2022-10-31T11:15:31.139Z,1006.8
2022-10-31T11:16:34.533Z,1006.8
2022-10-31T11:17:33.114Z,1006.8
2022-10-31T11:18:34.173Z,1006.8
2022-10-31T11:19:35.497Z,1006.8
2022-10-31T11:20:37.886Z,1006.9
2022-10-31T11:21:39.248Z,1006.9
2022-10-31T11:22:41.163Z,1006.8
2022-10-31T11:23:43.751Z,1006.8
2022-10-31T11:24:45.219Z,1006.8
2022-10-31T11:25:46.573Z,1006.8
2022-10-31T11:26:48.159Z,1006.8
2022-10-31T11:27:50.176Z,1006.8
2022-10-31T11:28:52.280Z,1006.8
2022-10-31T11:29:58.255Z,1006.7
2022-10-31T11:30:56.219Z,1006.8
2022-10-31T11:31:58.516Z,1006.8
2022-10-31T11:33:00.518Z,1006.7
2022-10-31T11:34:02.259Z,1006.7
2022-10-31T11:35:04.181Z,1006.8
2022-10-31T11:36:05.554Z,1006.7
2022-10-31T11:37:07.204Z,1006.7
2022-10-31T11:38:08.580Z,1006.7
2022-10-31T11:39:10.608Z,1006.7
2022-10-31T11:40:12.140Z,1006.7
2022-10-31T11:41:13.158Z,1006.7
2022-10-31T11:42:15.242Z,1006.7
2022-10-31T11:43:17.507Z,1006.7
2022-10-31T11:44:19.158Z,1006.7
2022-10-31T11:45:20.667Z,1006.7
2022-10-31T11:46:22.280Z,1006.7
2022-10-31T11:47:24.159Z,1006.7
2022-10-31T11:48:26.037Z,1006.7
2022-10-31T11:49:27.209Z,1006.6
2022-10-31T11:50:29.237Z,1006.7
2022-10-31T11:51:31.161Z,1006.6
2022-10-31T11:52:32.163Z,1006.6
2022-10-31T11:53:33.140Z,1006.7
2022-10-31T11:54:34.664Z,1006.7
2022-10-31T11:55:36.578Z,1006.7
2022-10-31T11:56:38.238Z,1006.7
2022-10-31T11:57:39.180Z,1006.6
2022-10-31T11:58:40.575Z,1006.6
2022-10-31T11:59:42.978Z,1006.6
2022-10-31T12:00:44.219Z,1006.6
2022-10-31T12:01:45.338Z,1006.6
2022-10-31T12:02:47.187Z,1006.6
2022-10-31T12:03:48.116Z,1006.6
2022-10-31T12:04:49.238Z,1006.5
2022-10-31T12:05:50.561Z,1006.6
2022-10-31T12:06:52.637Z,1006.6
2022-10-31T12:07:54.760Z,1006.6
2022-10-31T12:08:56.958Z,1006.6
2022-10-31T12:09:58.178Z,1006.7
2022-10-31T12:10:59.198Z,1006.4
2022-10-31T12:12:00.179Z,1006.6
2022-10-31T12:13:01.657Z,1006.6
2022-10-31T12:14:04.374Z,1006.6
2022-10-31T12:15:05.199Z,1006.6
2022-10-31T12:16:06.200Z,1006.6
2022-10-31T12:17:07.198Z,1006.6
2022-10-31T12:18:09.184Z,1006.6
2022-10-31T12:19:10.168Z,1006.6
2022-10-31T12:20:11.226Z,1006.6
2022-10-31T12:21:12.157Z,1006.6
2022-10-31T12:22:13.518Z,1006.5
2022-10-31T12:23:15.282Z,1006.5
2022-10-31T12:24:17.142Z,1006.2
2022-10-31T12:25:18.178Z,1006.5
2022-10-31T12:26:19.349Z,1006.5
2022-10-31T12:27:21.183Z,1006.5
2022-10-31T12:28:22.158Z,1006.6
2022-10-31T12:29:23.220Z,1006.6
2022-10-31T12:30:25.240Z,1006.6
2022-10-31T12:31:27.158Z,1006.5
2022-10-31T12:32:28.279Z,1006.6
2022-10-31T12:33:30.225Z,1006.6
2022-10-31T12:34:32.201Z,1006.5
2022-10-31T12:35:34.370Z,1006.6
2022-10-31T12:36:37.477Z,1006.5
2022-10-31T12:37:39.419Z,1006.5
2022-10-31T12:38:41.243Z,1006.5
2022-10-31T12:39:42.298Z,1006.5
2022-10-31T12:40:43.140Z,1006.5
2022-10-31T12:41:44.818Z,1006.6
2022-10-31T12:42:47.357Z,1006.5
2022-10-31T12:43:49.319Z,1006.5
2022-10-31T12:44:51.441Z,1006.5
2022-10-31T12:45:53.199Z,1006.5
2022-10-31T12:46:55.299Z,1006.5
2022-10-31T12:47:57.338Z,1006.5
2022-10-31T12:48:59.454Z,1006.5
2022-10-31T12:50:01.178Z,1006.5
2022-10-31T12:51:02.219Z,1006.5
2022-10-31T12:52:03.280Z,1006.5
2022-10-31T12:53:05.355Z,1006.5
2022-10-31T12:54:06.234Z,1006.5
2022-10-31T12:55:07.166Z,1006.5
2022-10-31T12:56:08.518Z,1006.4
2022-10-31T12:57:10.759Z,1006.4
2022-10-31T12:58:12.218Z,1006.4
2022-10-31T12:59:13.239Z,1006.4
2022-10-31T13:00:15.326Z,1006.4
2022-10-31T13:01:17.338Z,1006.4
2022-10-31T13:02:19.292Z,1006.4
2022-10-31T13:03:20.238Z,1006.4